createdAt,value
2018-09-22T00:00:18.889Z,0.00
2018-09-22T00:01:19.036Z,0.00
2018-09-22T00:02:19.188Z,0.00
2018-09-22T00:03:19.333Z,0.00
2018-09-22T00:04:19.484Z,0.00
2018-09-22T00:05:19.630Z,0.00
2018-09-22T00:06:19.781Z,0.00
2018-09-22T00:07:19.930Z,0.00
2018-09-22T00:08:20.079Z,0.00
2018-09-22T00:09:20.231Z,0.00
2018-09-22T00:10:20.383Z,0.00
2018-09-22T00:11:20.532Z,0.00
2018-09-22T00:12:20.712Z,0.00
2018-09-22T00:13:20.864Z,0.00
2018-09-22T00:14:21.011Z,0.00
2018-09-22T00:15:21.163Z,0.00
2018-09-22T00:16:21.314Z,0.00
2018-09-22T00:17:21.462Z,0.00
2018-09-22T00:18:21.612Z,0.00
2018-09-22T00:19:21.759Z,0.00
2018-09-22T00:20:21.908Z,0.00
2018-09-22T00:21:22.057Z,0.00
2018-09-22T00:22:22.211Z,0.00
2018-09-22T00:23:22.359Z,0.00
2018-09-22T00:24:22.511Z,0.00
2018-09-22T00:25:22.659Z,0.00
2018-09-22T00:26:22.808Z,0.00
2018-09-22T00:27:22.981Z,0.00
2018-09-22T00:28:23.103Z,0.00
2018-09-22T00:29:23.257Z,0.00
2018-09-22T00:30:23.408Z,0.00
2018-09-22T00:31:23.556Z,0.00
2018-09-22T00:32:23.704Z,0.00
2018-09-22T00:33:23.853Z,0.00
2018-09-22T00:34:24.002Z,0.00
2018-09-22T00:35:24.153Z,0.00
2018-09-22T00:36:24.309Z,0.00
2018-09-22T00:37:24.449Z,0.00
2018-09-22T00:38:24.601Z,0.00
2018-09-22T00:39:24.753Z,0.00
2018-09-22T00:40:24.901Z,0.00
2018-09-22T00:41:25.051Z,0.00
2018-09-22T00:42:25.197Z,0.00
2018-09-22T00:43:25.348Z,0.00
2018-09-22T00:44:25.496Z,0.00
2018-09-22T00:45:25.645Z,0.00
2018-09-22T00:46:25.795Z,0.00
2018-09-22T00:47:25.942Z,0.00
2018-09-22T00:48:26.094Z,0.00
2018-09-22T00:49:26.240Z,0.00
2018-09-22T00:50:26.391Z,0.00
2018-09-22T00:51:26.540Z,0.00
2018-09-22T00:52:26.689Z,0.00
2018-09-22T00:53:26.846Z,0.00
2018-09-22T00:54:26.991Z,0.00
2018-09-22T00:55:27.138Z,0.00
2018-09-22T00:56:27.288Z,0.00
2018-09-22T00:57:27.440Z,0.00
2018-09-22T00:58:27.588Z,0.00
2018-09-22T00:59:27.740Z,0.00
2018-09-22T01:00:27.887Z,0.00
2018-09-22T01:01:28.037Z,0.00
2018-09-22T01:02:28.186Z,0.00
2018-09-22T01:03:28.333Z,0.00
2018-09-22T01:04:28.487Z,0.00
2018-09-22T01:05:28.686Z,0.00
2018-09-22T01:06:28.785Z,0.00
2018-09-22T01:07:28.932Z,0.00
2018-09-22T01:08:29.083Z,0.00
2018-09-22T01:09:29.232Z,0.00
2018-09-22T01:10:29.383Z,0.00
2018-09-22T01:11:29.532Z,0.00
2018-09-22T01:12:29.683Z,0.00
2018-09-22T01:13:29.830Z,0.00
2018-09-22T01:14:29.978Z,0.00
2018-09-22T01:15:30.165Z,0.00
2018-09-22T01:16:30.277Z,0.00
2018-09-22T01:17:30.426Z,0.00
2018-09-22T01:18:30.574Z,0.00
2018-09-22T01:19:30.725Z,0.00
2018-09-22T01:20:30.875Z,0.00
2018-09-22T01:21:31.025Z,0.00
2018-09-22T01:22:31.172Z,0.00
2018-09-22T01:23:31.324Z,0.00
2018-09-22T01:24:31.472Z,0.00
2018-09-22T01:25:31.624Z,0.00
2018-09-22T01:26:31.773Z,0.00
2018-09-22T01:27:31.922Z,0.00
2018-09-22T01:28:32.070Z,0.00
2018-09-22T01:29:32.219Z,0.00
2018-09-22T01:30:32.368Z,0.00
2018-09-22T01:31:32.519Z,0.00
2018-09-22T01:32:32.670Z,0.00
2018-09-22T01:33:32.819Z,0.00
2018-09-22T01:34:32.968Z,0.00
2018-09-22T01:35:33.118Z,0.00
2018-09-22T01:36:33.271Z,0.00
2018-09-22T01:37:33.419Z,0.00
2018-09-22T01:38:33.572Z,0.00
2018-09-22T01:39:33.717Z,0.00
2018-09-22T01:40:33.870Z,0.00
2018-09-22T01:41:34.018Z,0.00
2018-09-22T01:42:34.172Z,0.00
2018-09-22T01:43:34.320Z,0.00
2018-09-22T01:44:34.467Z,0.00
2018-09-22T01:45:34.616Z,0.00
2018-09-22T01:46:34.767Z,0.00
2018-09-22T01:47:34.922Z,0.00
2018-09-22T01:48:35.069Z,0.00
2018-09-22T01:49:35.219Z,0.00
2018-09-22T01:50:35.366Z,0.00
2018-09-22T01:51:35.517Z,0.00
2018-09-22T01:52:35.697Z,0.00
2018-09-22T01:53:35.816Z,0.00
2018-09-22T01:54:35.964Z,0.00
2018-09-22T01:55:36.115Z,0.00
2018-09-22T01:56:36.261Z,0.00
2018-09-22T01:57:36.411Z,0.00
2018-09-22T01:58:36.559Z,0.00
2018-09-22T01:59:36.708Z,0.00
2018-09-22T02:00:36.857Z,0.00
2018-09-22T02:01:37.006Z,0.00
2018-09-22T02:02:37.155Z,0.00
2018-09-22T02:03:37.307Z,0.00
2018-09-22T02:04:37.455Z,0.00
2018-09-22T02:05:37.602Z,0.00
2018-09-22T02:06:37.751Z,0.00
2018-09-22T02:07:37.902Z,0.00
2018-09-22T02:08:38.051Z,0.00
2018-09-22T02:09:38.199Z,0.00
2018-09-22T02:10:38.443Z,0.00
2018-09-22T02:11:38.499Z,0.00
2018-09-22T02:12:38.651Z,0.00
2018-09-22T02:13:38.800Z,0.00
2018-09-22T02:14:38.949Z,0.00
2018-09-22T02:15:39.096Z,0.00
2018-09-22T02:16:39.248Z,0.00
2018-09-22T02:17:39.398Z,0.00
2018-09-22T02:18:39.546Z,0.00
2018-09-22T02:19:39.695Z,0.00
2018-09-22T02:20:39.848Z,0.00
2018-09-22T02:21:39.995Z,0.00
2018-09-22T02:22:40.144Z,0.00
2018-09-22T02:23:40.301Z,0.00
2018-09-22T02:24:40.446Z,0.00
2018-09-22T02:25:40.596Z,0.00
2018-09-22T02:26:40.743Z,0.00
2018-09-22T02:27:40.892Z,0.00
2018-09-22T02:28:41.044Z,0.00
2018-09-22T02:29:41.196Z,0.00
2018-09-22T02:30:41.342Z,0.00
2018-09-22T02:31:41.494Z,0.00
2018-09-22T02:32:41.642Z,0.00
2018-09-22T02:33:41.791Z,0.00
2018-09-22T02:34:41.938Z,0.00
2018-09-22T02:35:42.090Z,0.00
2018-09-22T02:36:42.238Z,0.00
2018-09-22T02:37:42.387Z,0.00
2018-09-22T02:38:42.535Z,0.00
2018-09-22T02:39:42.685Z,0.00
2018-09-22T02:40:42.833Z,0.00
2018-09-22T02:41:42.982Z,0.00
2018-09-22T02:42:43.135Z,0.00
2018-09-22T02:43:43.283Z,0.00
2018-09-22T02:44:43.435Z,0.00
2018-09-22T02:45:43.583Z,0.00
2018-09-22T02:46:43.726Z,0.00
2018-09-22T02:47:43.876Z,0.00
2018-09-22T02:48:44.033Z,0.00
2018-09-22T02:49:44.178Z,0.00
2018-09-22T02:50:44.323Z,0.00
2018-09-22T02:51:44.473Z,0.00
2018-09-22T02:52:44.621Z,0.00
2018-09-22T02:53:44.770Z,0.00
2018-09-22T02:54:44.922Z,0.00
2018-09-22T02:55:45.070Z,0.00
2018-09-22T02:56:45.219Z,0.00
2018-09-22T02:57:45.377Z,0.00
2018-09-22T02:58:45.524Z,0.00
2018-09-22T02:59:45.672Z,0.00
2018-09-22T03:00:45.821Z,0.00
2018-09-22T03:01:45.972Z,0.00
2018-09-22T03:02:46.120Z,0.00
2018-09-22T03:03:46.272Z,0.00
2018-09-22T03:04:46.419Z,0.00
2018-09-22T03:05:46.575Z,0.00
2018-09-22T03:06:46.741Z,0.00
2018-09-22T03:07:46.872Z,0.00
2018-09-22T03:08:47.047Z,0.00
2018-09-22T03:09:47.170Z,0.00
2018-09-22T03:10:47.319Z,0.00
2018-09-22T03:11:47.469Z,0.00
2018-09-22T03:12:47.617Z,0.00
2018-09-22T03:13:47.770Z,0.00
2018-09-22T03:14:47.915Z,0.00
2018-09-22T03:15:48.072Z,0.00
2018-09-22T03:16:48.219Z,0.00
2018-09-22T03:17:48.372Z,0.00
2018-09-22T03:18:48.511Z,0.00
2018-09-22T03:19:48.662Z,0.00
2018-09-22T03:20:48.811Z,0.00
2018-09-22T03:21:48.961Z,0.00
2018-09-22T03:22:49.109Z,0.00
2018-09-22T03:23:49.257Z,0.00
2018-09-22T03:24:49.417Z,0.00
2018-09-22T03:25:49.556Z,0.00
2018-09-22T03:26:49.705Z,0.00
2018-09-22T03:27:49.857Z,0.00
2018-09-22T03:28:50.009Z,0.00
2018-09-22T03:29:50.155Z,0.00
2018-09-22T03:30:50.301Z,0.00
2018-09-22T03:31:50.452Z,0.00
2018-09-22T03:32:50.604Z,0.00
2018-09-22T03:33:50.752Z,0.00
2018-09-22T03:34:50.903Z,0.00
2018-09-22T03:35:51.059Z,0.00
2018-09-22T03:36:51.221Z,0.00
2018-09-22T03:37:51.349Z,0.00
2018-09-22T03:38:51.498Z,0.00
2018-09-22T03:39:51.650Z,0.00
2018-09-22T03:40:51.796Z,0.00
2018-09-22T03:41:51.947Z,0.00
2018-09-22T03:42:52.093Z,0.00
2018-09-22T03:43:52.243Z,0.00
2018-09-22T03:44:52.396Z,0.00
2018-09-22T03:45:52.542Z,0.00
2018-09-22T03:46:52.690Z,0.00
2018-09-22T03:47:52.841Z,0.00
2018-09-22T03:48:52.990Z,0.00
2018-09-22T03:49:53.144Z,0.00
2018-09-22T03:50:53.294Z,0.00
2018-09-22T03:51:53.439Z,0.00
2018-09-22T03:52:53.590Z,0.00
2018-09-22T03:53:53.738Z,0.00
2018-09-22T03:54:53.891Z,0.00
2018-09-22T03:55:54.097Z,0.00
2018-09-22T03:56:54.187Z,0.00
2018-09-22T03:57:54.336Z,0.00
2018-09-22T03:58:54.485Z,0.00
2018-09-22T03:59:54.633Z,0.00
2018-09-22T04:00:54.783Z,0.00
2018-09-22T04:01:54.934Z,0.00
2018-09-22T04:02:55.084Z,0.00
2018-09-22T04:03:55.230Z,0.00
2018-09-22T04:04:55.380Z,0.00
2018-09-22T04:05:55.529Z,0.00
2018-09-22T04:06:55.676Z,0.00
2018-09-22T04:07:55.825Z,0.00
2018-09-22T04:08:55.976Z,0.00
2018-09-22T04:09:56.125Z,0.00
2018-09-22T04:10:56.274Z,0.00
2018-09-22T04:11:56.422Z,0.00
2018-09-22T04:12:56.572Z,0.00
2018-09-22T04:13:56.718Z,0.00
2018-09-22T04:14:56.870Z,0.00
2018-09-22T04:15:57.020Z,0.00
2018-09-22T04:16:57.167Z,0.00
2018-09-22T04:17:57.319Z,0.00
2018-09-22T04:18:57.467Z,0.00
2018-09-22T04:19:57.618Z,0.00
2018-09-22T04:20:57.766Z,0.00
2018-09-22T04:21:57.917Z,0.00
2018-09-22T04:22:58.065Z,0.00
2018-09-22T04:23:58.216Z,0.00
2018-09-22T04:24:58.367Z,0.00
2018-09-22T04:25:58.516Z,0.00
2018-09-22T04:26:58.665Z,0.00
2018-09-22T04:27:58.813Z,0.00
2018-09-22T04:28:58.966Z,0.00
2018-09-22T04:29:59.118Z,0.00
2018-09-22T04:30:59.266Z,0.00
2018-09-22T04:31:59.417Z,0.00
2018-09-22T04:32:59.565Z,0.00
2018-09-22T04:33:59.717Z,0.00
2018-09-22T04:34:59.866Z,0.00
2018-09-22T04:36:00.024Z,0.00
2018-09-22T04:37:00.166Z,4.00
2018-09-22T04:38:00.315Z,4.00
2018-09-22T04:39:00.465Z,0.00
2018-09-22T04:40:00.616Z,4.00
2018-09-22T04:41:00.768Z,4.00
2018-09-22T04:42:00.916Z,4.00
2018-09-22T04:43:01.066Z,8.00
2018-09-22T04:44:01.215Z,8.00
2018-09-22T04:45:01.364Z,12.00
2018-09-22T04:46:01.522Z,12.00
2018-09-22T04:47:01.666Z,16.00
2018-09-22T04:48:01.817Z,16.00
2018-09-22T04:49:01.967Z,20.00
2018-09-22T04:50:02.119Z,24.00
2018-09-22T04:51:02.265Z,28.00
2018-09-22T04:52:02.416Z,36.00
2018-09-22T04:53:02.562Z,44.00
2018-09-22T04:54:02.711Z,48.00
2018-09-22T04:55:02.859Z,60.00
2018-09-22T04:56:03.008Z,68.00
2018-09-22T04:57:03.155Z,72.00
2018-09-22T04:58:03.307Z,88.00
2018-09-22T04:59:03.456Z,108.00
2018-09-22T05:00:03.605Z,124.00
2018-09-22T05:01:03.756Z,148.00
2018-09-22T05:02:03.910Z,168.00
2018-09-22T05:03:04.055Z,192.00
2018-09-22T05:04:04.205Z,208.00
2018-09-22T05:05:04.354Z,236.00
2018-09-22T05:06:04.504Z,252.00
2018-09-22T05:07:04.653Z,272.00
2018-09-22T05:08:04.805Z,300.00
2018-09-22T05:09:04.953Z,332.00
2018-09-22T05:10:05.100Z,372.00
2018-09-22T05:11:05.255Z,404.00
2018-09-22T05:12:05.401Z,428.00
2018-09-22T05:13:05.550Z,460.00
2018-09-22T05:14:05.699Z,512.00
2018-09-22T05:15:05.849Z,556.00
2018-09-22T05:16:06.005Z,596.00
2018-09-22T05:17:06.189Z,648.00
2018-09-22T05:18:06.295Z,700.00
2018-09-22T05:19:06.444Z,732.00
2018-09-22T05:20:06.595Z,748.00
2018-09-22T05:21:06.746Z,796.00
2018-09-22T05:22:06.893Z,856.00
2018-09-22T05:23:07.044Z,932.00
2018-09-22T05:24:07.196Z,1032.00
2018-09-22T05:25:07.344Z,1112.00
2018-09-22T05:26:07.493Z,1180.00
2018-09-22T05:27:07.644Z,1212.00
2018-09-22T05:28:07.792Z,1252.00
2018-09-22T05:29:07.944Z,1308.00
2018-09-22T05:30:08.092Z,1380.00
2018-09-22T05:31:08.249Z,1480.00
2018-09-22T05:32:08.395Z,1548.00
2018-09-22T05:33:08.545Z,1584.00
2018-09-22T05:34:08.696Z,1592.00
2018-09-22T05:35:08.844Z,1628.00
2018-09-22T05:36:08.995Z,1696.00
2018-09-22T05:37:09.145Z,1784.00
2018-09-22T05:38:09.292Z,1876.00
2018-09-22T05:39:09.443Z,1980.00
2018-09-22T05:40:09.592Z,2036.00
2018-09-22T05:41:09.741Z,2088.00
2018-09-22T05:42:09.890Z,2136.00
2018-09-22T05:43:10.038Z,2160.00
2018-09-22T05:44:10.190Z,2180.00
2018-09-22T05:45:10.339Z,2212.00
2018-09-22T05:46:10.490Z,2180.00
2018-09-22T05:47:10.638Z,2184.00
2018-09-22T05:48:10.790Z,2256.00
2018-09-22T05:49:10.939Z,2204.00
2018-09-22T05:50:11.087Z,2352.00
2018-09-22T05:51:11.239Z,2436.00
2018-09-22T05:52:11.388Z,2448.00
2018-09-22T05:53:11.538Z,2404.00
2018-09-22T05:54:11.687Z,2340.00
2018-09-22T05:55:11.838Z,2420.00
2018-09-22T05:56:11.986Z,2444.00
2018-09-22T05:57:12.136Z,2492.00
2018-09-22T05:58:12.315Z,2560.00
2018-09-22T05:59:12.437Z,2624.00
2018-09-22T06:00:12.585Z,2600.00
2018-09-22T06:01:12.735Z,2636.00
2018-09-22T06:02:12.890Z,2708.00
2018-09-22T06:03:13.038Z,2688.00
2018-09-22T06:04:13.185Z,2684.00
2018-09-22T06:05:13.334Z,2680.00
2018-09-22T06:06:13.485Z,2672.00
2018-09-22T06:07:13.635Z,2652.00
2018-09-22T06:08:13.784Z,2648.00
2018-09-22T06:09:13.933Z,2636.00
2018-09-22T06:10:14.085Z,2724.00
2018-09-22T06:11:14.239Z,2904.00
2018-09-22T06:12:14.386Z,2976.00
2018-09-22T06:13:14.535Z,2976.00
2018-09-22T06:14:14.688Z,3004.00
2018-09-22T06:15:14.835Z,3120.00
2018-09-22T06:16:14.986Z,3364.00
2018-09-22T06:17:15.138Z,3360.00
2018-09-22T06:18:15.286Z,3536.00
2018-09-22T06:19:15.517Z,3532.00
2018-09-22T06:20:15.675Z,3500.00
2018-09-22T06:21:15.753Z,3624.00
2018-09-22T06:22:15.899Z,3776.00
2018-09-22T06:23:16.131Z,3872.00
2018-09-22T06:24:16.194Z,3924.00
2018-09-22T06:25:16.341Z,3796.00
2018-09-22T06:26:16.493Z,3752.00
2018-09-22T06:27:16.646Z,3668.00
2018-09-22T06:28:16.796Z,3788.00
2018-09-22T06:29:16.943Z,3944.00
2018-09-22T06:30:17.094Z,4016.00
2018-09-22T06:31:17.408Z,4212.00
2018-09-22T06:32:17.384Z,4180.00
2018-09-22T06:33:17.535Z,3932.00
2018-09-22T06:34:17.684Z,3892.00
2018-09-22T06:35:17.847Z,4096.00
2018-09-22T06:36:17.995Z,4048.00
2018-09-22T06:37:18.199Z,3976.00
2018-09-22T06:38:18.297Z,4108.00
2018-09-22T06:39:18.455Z,4276.00
2018-09-22T06:40:18.600Z,4548.00
2018-09-22T06:41:18.749Z,4668.00
2018-09-22T06:42:18.897Z,4784.00
2018-09-22T06:43:19.047Z,4928.00
2018-09-22T06:44:19.197Z,5056.00
2018-09-22T06:45:19.349Z,5116.00
2018-09-22T06:46:19.571Z,5092.00
2018-09-22T06:47:19.648Z,5140.00
2018-09-22T06:48:19.797Z,5188.00
2018-09-22T06:49:19.947Z,5292.00
2018-09-22T06:50:20.095Z,5244.00
2018-09-22T06:51:20.247Z,5168.00
2018-09-22T06:52:20.395Z,5004.00
2018-09-22T06:53:20.547Z,4784.00
2018-09-22T06:54:20.700Z,4468.00
2018-09-22T06:55:20.868Z,4336.00
2018-09-22T06:56:20.995Z,4316.00
2018-09-22T06:57:21.148Z,4216.00
2018-09-22T06:58:21.297Z,4060.00
2018-09-22T06:59:21.447Z,3760.00
2018-09-22T07:00:21.600Z,3468.00
2018-09-22T07:01:21.750Z,3224.00
2018-09-22T07:02:21.900Z,3192.00
2018-09-22T07:03:22.052Z,3400.00
2018-09-22T07:04:22.201Z,3700.00
2018-09-22T07:05:22.354Z,4052.00
2018-09-22T07:06:22.545Z,4352.00
2018-09-22T07:07:22.653Z,4740.00
2018-09-22T07:08:22.803Z,4900.00
2018-09-22T07:09:22.953Z,5008.00
2018-09-22T07:10:23.106Z,4856.00
2018-09-22T07:11:23.286Z,4792.00
2018-09-22T07:12:23.642Z,4460.00
2018-09-22T07:13:23.552Z,4056.00
2018-09-22T07:14:23.722Z,4336.00
2018-09-22T07:15:23.858Z,4188.00
2018-09-22T07:16:24.201Z,4008.00
2018-09-22T07:17:24.134Z,4120.00
2018-09-22T07:18:24.283Z,4312.00
2018-09-22T07:19:24.471Z,4220.00
2018-09-22T07:20:24.585Z,4508.00
2018-09-22T07:21:24.739Z,4644.00
2018-09-22T07:22:24.886Z,4068.00
2018-09-22T07:23:25.036Z,4376.00
2018-09-22T07:24:25.190Z,4316.00
2018-09-22T07:25:25.410Z,4564.00
2018-09-22T07:26:25.488Z,4632.00
2018-09-22T07:27:25.641Z,4696.00
2018-09-22T07:28:25.830Z,4568.00
2018-09-22T07:29:25.959Z,4772.00
2018-09-22T07:30:26.089Z,4976.00
2018-09-22T07:31:26.237Z,5224.00
2018-09-22T07:32:26.388Z,5408.00
2018-09-22T07:33:26.541Z,5408.00
2018-09-22T07:34:26.688Z,5520.00
2018-09-22T07:35:26.838Z,5996.00
2018-09-22T07:36:26.988Z,6152.00
2018-09-22T07:37:27.141Z,6312.00
2018-09-22T07:38:27.291Z,6284.00
2018-09-22T07:39:27.485Z,6312.00
2018-09-22T07:40:27.590Z,6216.00
2018-09-22T07:41:27.745Z,6000.00
2018-09-22T07:42:27.896Z,5596.00
2018-09-22T07:43:28.047Z,5868.00
2018-09-22T07:44:28.200Z,6096.00
2018-09-22T07:45:28.347Z,6140.00
2018-09-22T07:46:28.503Z,6064.00
2018-09-22T07:47:28.652Z,6020.00
2018-09-22T07:48:28.801Z,5644.00
2018-09-22T07:49:28.951Z,5536.00
2018-09-22T07:50:29.105Z,4800.00
2018-09-22T07:51:29.252Z,4540.00
2018-09-22T07:52:29.403Z,4784.00
2018-09-22T07:53:29.553Z,5156.00
2018-09-22T07:54:29.703Z,5344.00
2018-09-22T07:55:29.855Z,5528.00
2018-09-22T07:56:30.010Z,5696.00
2018-09-22T07:57:30.160Z,5620.00
2018-09-22T07:58:30.312Z,5992.00
2018-09-22T07:59:30.464Z,6236.00
2018-09-22T08:00:30.638Z,6436.00
2018-09-22T08:01:30.765Z,6588.00
2018-09-22T08:02:30.914Z,6436.00
2018-09-22T08:03:31.078Z,7076.00
2018-09-22T08:04:31.227Z,6464.00
2018-09-22T08:05:31.383Z,7016.00
2018-09-22T08:06:31.533Z,7760.00
2018-09-22T08:07:31.683Z,8284.00
2018-09-22T08:08:31.835Z,8700.00
2018-09-22T08:09:31.986Z,8488.00
2018-09-22T08:10:32.140Z,7848.00
2018-09-22T08:11:32.334Z,8260.00
2018-09-22T08:12:32.440Z,8472.00
2018-09-22T08:13:32.592Z,8792.00
2018-09-22T08:14:32.746Z,8220.00
2018-09-22T08:15:32.895Z,7804.00
2018-09-22T08:16:33.047Z,7720.00
2018-09-22T08:17:33.197Z,7900.00
2018-09-22T08:18:33.349Z,8212.00
2018-09-22T08:19:33.499Z,8376.00
2018-09-22T08:20:33.653Z,7880.00
2018-09-22T08:21:33.803Z,7760.00
2018-09-22T08:22:33.956Z,7612.00
2018-09-22T08:23:34.113Z,7628.00
2018-09-22T08:24:34.263Z,7184.00
2018-09-22T08:25:34.418Z,6192.00
2018-09-22T08:26:34.570Z,5868.00
2018-09-22T08:27:34.723Z,6008.00
2018-09-22T08:28:34.877Z,5168.00
2018-09-22T08:29:35.026Z,6452.00
2018-09-22T08:30:35.179Z,5768.00
2018-09-22T08:31:35.333Z,6264.00
2018-09-22T08:32:35.484Z,7068.00
2018-09-22T08:33:35.638Z,7840.00
2018-09-22T08:34:35.790Z,7872.00
2018-09-22T08:35:35.941Z,7800.00
2018-09-22T08:36:36.304Z,7496.00
2018-09-22T08:37:36.247Z,7728.00
2018-09-22T08:38:36.400Z,7956.00
2018-09-22T08:39:36.554Z,8268.00
2018-09-22T08:40:36.710Z,9316.00
2018-09-22T08:41:36.859Z,9172.00
2018-09-22T08:42:37.010Z,9608.00
2018-09-22T08:43:37.161Z,8716.00
2018-09-22T08:44:37.316Z,8220.00
2018-09-22T08:45:37.470Z,7472.00
2018-09-22T08:46:37.620Z,7160.00
2018-09-22T08:47:37.778Z,7296.00
2018-09-22T08:48:37.928Z,7972.00
2018-09-22T08:49:38.147Z,7428.00
2018-09-22T08:50:38.232Z,7704.00
2018-09-22T08:51:38.391Z,7200.00
2018-09-22T08:52:38.542Z,7072.00
2018-09-22T08:53:38.695Z,7412.00
2018-09-22T08:54:38.849Z,7472.00
2018-09-22T08:55:39.000Z,7744.00
2018-09-22T08:56:39.153Z,7092.00
2018-09-22T08:57:39.308Z,7760.00
2018-09-22T08:58:39.457Z,7976.00
2018-09-22T08:59:39.612Z,7344.00
2018-09-22T09:00:39.761Z,7132.00
2018-09-22T09:01:39.915Z,7032.00
2018-09-22T09:02:40.069Z,6692.00
2018-09-22T09:03:40.222Z,6796.00
2018-09-22T09:04:40.375Z,7044.00
2018-09-22T09:05:40.552Z,7448.00
2018-09-22T09:06:40.682Z,6836.00
2018-09-22T09:07:40.832Z,7212.00
2018-09-22T09:08:40.986Z,6544.00
2018-09-22T09:09:41.143Z,6960.00
2018-09-22T09:10:41.290Z,6516.00
2018-09-22T09:11:41.445Z,6784.00
2018-09-22T09:12:41.602Z,6608.00
2018-09-22T09:13:41.788Z,6400.00
2018-09-22T09:14:41.955Z,6304.00
2018-09-22T09:15:42.058Z,6936.00
2018-09-22T09:16:42.208Z,6764.00
2018-09-22T09:17:42.364Z,6588.00
2018-09-22T09:18:42.515Z,6180.00
2018-09-22T09:19:42.671Z,6232.00
2018-09-22T09:20:42.821Z,6692.00
2018-09-22T09:21:42.976Z,6428.00
2018-09-22T09:22:43.126Z,6344.00
2018-09-22T09:23:43.276Z,6184.00
2018-09-22T09:24:43.437Z,6340.00
2018-09-22T09:25:43.590Z,5888.00
2018-09-22T09:26:43.739Z,5880.00
2018-09-22T09:27:43.898Z,6324.00
2018-09-22T09:28:44.048Z,6628.00
2018-09-22T09:29:44.202Z,7128.00
2018-09-22T09:30:44.352Z,7232.00
2018-09-22T09:31:44.508Z,7712.00
2018-09-22T09:32:44.659Z,7972.00
2018-09-22T09:33:44.812Z,6892.00
2018-09-22T09:34:44.966Z,7224.00
2018-09-22T09:35:45.122Z,7032.00
2018-09-22T09:36:45.269Z,7004.00
2018-09-22T09:37:45.430Z,7060.00
2018-09-22T09:38:45.570Z,7096.00
2018-09-22T09:39:45.722Z,7408.00
2018-09-22T09:40:45.878Z,7468.00
2018-09-22T09:41:46.028Z,7196.00
2018-09-22T09:42:46.179Z,7096.00
2018-09-22T09:43:46.381Z,6756.00
2018-09-22T09:44:46.488Z,6324.00
2018-09-22T09:45:46.638Z,6256.00
2018-09-22T09:46:46.799Z,6504.00
2018-09-22T09:47:46.943Z,7268.00
2018-09-22T09:48:47.096Z,7844.00
2018-09-22T09:49:47.248Z,8224.00
2018-09-22T09:50:47.402Z,8592.00
2018-09-22T09:51:47.557Z,8796.00
2018-09-22T09:52:47.709Z,8976.00
2018-09-22T09:53:47.863Z,9208.00
2018-09-22T09:54:48.019Z,9216.00
2018-09-22T09:55:48.172Z,9428.00
2018-09-22T09:56:48.320Z,9232.00
2018-09-22T09:57:48.474Z,8728.00
2018-09-22T09:58:48.625Z,7980.00
2018-09-22T09:59:48.777Z,7764.00
2018-09-22T10:00:48.932Z,7928.00
2018-09-22T10:01:49.085Z,7544.00
2018-09-22T10:02:49.243Z,8636.00
2018-09-22T10:03:49.395Z,9252.00
2018-09-22T10:04:49.552Z,8988.00
2018-09-22T10:05:49.703Z,8524.00
2018-09-22T10:06:49.861Z,7636.00
2018-09-22T10:07:50.008Z,8044.00
2018-09-22T10:08:50.162Z,8008.00
2018-09-22T10:09:50.322Z,7464.00
2018-09-22T10:10:50.477Z,7672.00
2018-09-22T10:11:50.649Z,8072.00
2018-09-22T10:12:50.775Z,8640.00
2018-09-22T10:13:50.931Z,8872.00
2018-09-22T10:14:51.088Z,9208.00
2018-09-22T10:15:51.238Z,8984.00
2018-09-22T10:16:51.393Z,7924.00
2018-09-22T10:17:51.547Z,8888.00
2018-09-22T10:18:51.702Z,9464.00
2018-09-22T10:19:51.859Z,10236.00
2018-09-22T10:20:52.009Z,10664.00
2018-09-22T10:21:52.162Z,10152.00
2018-09-22T10:22:52.316Z,9000.00
2018-09-22T10:23:52.469Z,8744.00
2018-09-22T10:24:52.621Z,8720.00
2018-09-22T10:25:52.772Z,8800.00
2018-09-22T10:26:52.927Z,8144.00
2018-09-22T10:27:53.084Z,8532.00
2018-09-22T10:28:53.273Z,8656.00
2018-09-22T10:29:53.418Z,8476.00
2018-09-22T10:30:53.542Z,8696.00
2018-09-22T10:31:53.695Z,9352.00
2018-09-22T10:32:53.849Z,9904.00
2018-09-22T10:33:54.004Z,10236.00
2018-09-22T10:34:54.155Z,10128.00
2018-09-22T10:35:54.309Z,9912.00
2018-09-22T10:36:54.463Z,10476.00
2018-09-22T10:37:54.618Z,9748.00
2018-09-22T10:38:54.772Z,11236.00
2018-09-22T10:39:54.973Z,10776.00
2018-09-22T10:40:55.080Z,11384.00
2018-09-22T10:41:55.234Z,10416.00
2018-09-22T10:42:55.391Z,10504.00
2018-09-22T10:43:55.542Z,11940.00
2018-09-22T10:44:55.699Z,11612.00
2018-09-22T10:45:55.851Z,10876.00
2018-09-22T10:46:56.006Z,10192.00
2018-09-22T10:47:56.166Z,9596.00
2018-09-22T10:48:56.312Z,8432.00
2018-09-22T10:49:56.467Z,8772.00
2018-09-22T10:50:56.924Z,8876.00
2018-09-22T10:51:56.720Z,9132.00
2018-09-22T10:52:56.877Z,9348.00
2018-09-22T10:53:57.022Z,9948.00
2018-09-22T10:54:57.176Z,9372.00
2018-09-22T10:55:57.329Z,9936.00
2018-09-22T10:56:57.485Z,9428.00
2018-09-22T10:57:57.639Z,9304.00
2018-09-22T10:58:57.790Z,9496.00
2018-09-22T10:59:57.947Z,9260.00
2018-09-22T11:00:58.118Z,9076.00
2018-09-22T11:01:58.252Z,8872.00
2018-09-22T11:02:58.405Z,8588.00
2018-09-22T11:03:58.558Z,8340.00
2018-09-22T11:04:58.731Z,8312.00
2018-09-22T11:05:58.871Z,8096.00
2018-09-22T11:06:59.026Z,8640.00
2018-09-22T11:07:59.179Z,7872.00
2018-09-22T11:08:59.335Z,8288.00
2018-09-22T11:09:59.492Z,7288.00
2018-09-22T11:10:59.643Z,8176.00
2018-09-22T11:11:59.804Z,7884.00
2018-09-22T11:12:59.960Z,7500.00
2018-09-22T11:14:00.118Z,7952.00
2018-09-22T11:15:00.277Z,7516.00
2018-09-22T11:16:00.433Z,7620.00
2018-09-22T11:17:00.582Z,8356.00
2018-09-22T11:18:00.736Z,6536.00
2018-09-22T11:19:00.886Z,7120.00
2018-09-22T11:20:01.051Z,7412.00
2018-09-22T11:21:01.196Z,6916.00
2018-09-22T11:22:01.349Z,6864.00
2018-09-22T11:23:01.508Z,7028.00
2018-09-22T11:24:01.662Z,7172.00
2018-09-22T11:25:01.823Z,6940.00
2018-09-22T11:26:01.967Z,6980.00
2018-09-22T11:27:02.167Z,7116.00
2018-09-22T11:28:02.277Z,7504.00
2018-09-22T11:29:02.431Z,7752.00
2018-09-22T11:30:02.588Z,7928.00
2018-09-22T11:31:02.737Z,8716.00
2018-09-22T11:32:02.893Z,9680.00
2018-09-22T11:33:03.046Z,7960.00
2018-09-22T11:34:03.198Z,7872.00
2018-09-22T11:35:03.356Z,9548.00
2018-09-22T11:36:03.509Z,7984.00
2018-09-22T11:37:03.667Z,7924.00
2018-09-22T11:38:03.816Z,7896.00
2018-09-22T11:39:03.969Z,7752.00
2018-09-22T11:40:04.124Z,7176.00
2018-09-22T11:41:04.285Z,6788.00
2018-09-22T11:42:04.437Z,8296.00
2018-09-22T11:43:04.592Z,8000.00
2018-09-22T11:44:04.747Z,6688.00
2018-09-22T11:45:04.902Z,6440.00
2018-09-22T11:46:05.079Z,6208.00
2018-09-22T11:47:05.209Z,7388.00
2018-09-22T11:48:05.361Z,7348.00
2018-09-22T11:49:05.514Z,6260.00
2018-09-22T11:50:05.675Z,6688.00
2018-09-22T11:51:05.826Z,7144.00
2018-09-22T11:52:05.982Z,8180.00
2018-09-22T11:53:06.134Z,7776.00
2018-09-22T11:54:06.310Z,8180.00
2018-09-22T11:55:06.441Z,8716.00
2018-09-22T11:56:06.594Z,9020.00
2018-09-22T11:57:06.751Z,9040.00
2018-09-22T11:58:06.901Z,9048.00
2018-09-22T11:59:07.054Z,9212.00
2018-09-22T12:00:07.210Z,9200.00
2018-09-22T12:01:07.375Z,9720.00
2018-09-22T12:02:07.519Z,10520.00
2018-09-22T12:03:07.670Z,11160.00
2018-09-22T12:04:07.826Z,11884.00
2018-09-22T12:05:07.978Z,12740.00
2018-09-22T12:06:08.201Z,12520.00
2018-09-22T12:07:08.288Z,12508.00
2018-09-22T12:08:08.440Z,12248.00
2018-09-22T12:09:08.602Z,11680.00
2018-09-22T12:10:08.753Z,11576.00
2018-09-22T12:11:08.905Z,11552.00
2018-09-22T12:12:09.059Z,11708.00
2018-09-22T12:13:09.219Z,11872.00
2018-09-22T12:14:09.391Z,11324.00
2018-09-22T12:15:09.527Z,10820.00
2018-09-22T12:16:09.683Z,10684.00
2018-09-22T12:17:09.839Z,10688.00
2018-09-22T12:18:09.998Z,10800.00
2018-09-22T12:19:10.151Z,10740.00
2018-09-22T12:20:10.306Z,10888.00
2018-09-22T12:21:10.500Z,10800.00
2018-09-22T12:22:10.616Z,10320.00
2018-09-22T12:23:10.776Z,9976.00
2018-09-22T12:24:10.946Z,9784.00
2018-09-22T12:25:11.089Z,9532.00
2018-09-22T12:26:11.241Z,9188.00
2018-09-22T12:27:11.395Z,9028.00
2018-09-22T12:28:11.557Z,9156.00
2018-09-22T12:29:11.709Z,9252.00
2018-09-22T12:30:11.861Z,9092.00
2018-09-22T12:31:12.011Z,9312.00
2018-09-22T12:32:12.167Z,9560.00
2018-09-22T12:33:12.322Z,9444.00
2018-09-22T12:34:12.477Z,8996.00